Time;durP1;ratioP1;P1;durP2;ratioP2;P2;SDS_P1;SDS_P2;PMS_P1;PMS_P2;Temp;Humidity;BMP_temperature;BMP_pressure;BME280_temperature;BME280_humidity;BME280_pressure;Samples;Min_cycle;Max_cycle;Signal;HPM_P1;HPM_P2
2022/12/19 00:00:31;;;;;;;32.03;16.83;;;0.10;99.90;;;;;;5099177;27;20616;-76
2022/12/19 00:02:59;;;;;;;31.17;17.15;;;0.10;99.90;;;;;;5115607;27;20260;-77
2022/12/19 00:05:28;;;;;;;31.58;17.23;;;0.20;99.90;;;;;;5099078;28;20233;-77
2022/12/19 00:07:56;;;;;;;32.95;15.98;;;0.20;33.60;;;;;;5101882;27;20761;-77
2022/12/19 00:10:25;;;;;;;35.33;17.70;;;0.10;1.00;;;;;;5098301;28;20272;-77
2022/12/19 00:12:54;;;;;;;31.25;20.65;;;0.10;99.90;;;;;;5098675;28;20673;-76
2022/12/19 00:15:22;;;;;;;34.17;18.50;;;0.00;69.00;;;;;;5093319;27;20191;-76
2022/12/19 00:17:51;;;;;;;32.60;17.77;;;0.10;99.90;;;;;;5093703;27;20210;-76
2022/12/19 00:20:20;;;;;;;29.65;18.52;;;0.20;1.00;;;;;;5090831;27;20222;-77
2022/12/19 00:22:48;;;;;;;30.52;17.20;;;0.20;1.00;;;;;;5099787;28;20203;-76
2022/12/19 00:25:20;;;;;;;35.25;17.55;;;0.10;99.90;;;;;;5087096;27;20203;-76
2022/12/19 00:27:48;;;;;;;31.17;18.05;;;0.10;99.90;;;;;;5090571;27;20570;-78
2022/12/19 00:30:17;;;;;;;31.00;16.80;;;0.10;1.00;;;;;;5095854;27;20219;-76
2022/12/19 00:32:46;;;;;;;34.50;19.73;;;0.10;99.90;;;;;;5093462;27;21074;-78
2022/12/19 00:35:16;;;;;;;27.75;17.58;;;0.10;1.00;;;;;;5094517;27;20192;-77
2022/12/19 00:37:44;;;;;;;31.98;17.13;;;0.20;99.90;;;;;;5093068;27;20319;-79
2022/12/19 00:40:17;;;;;;;31.83;17.88;;;0.30;1.00;;;;;;5099034;27;20195;-77
2022/12/19 00:42:45;;;;;;;30.85;18.00;;;0.30;99.90;;;;;;5087476;28;20364;-77
2022/12/19 00:45:20;;;;;;;28.00;16.83;;;0.20;1.00;;;;;;5095221;27;20634;-76
2022/12/19 00:47:48;;;;;;;31.30;17.00;;;0.20;1.00;;;;;;5094363;28;20695;-77
2022/12/19 00:50:18;;;;;;;31.15;17.95;;;0.30;1.00;;;;;;5095854;28;20227;-76
2022/12/19 00:52:46;;;;;;;29.80;17.13;;;0.20;1.00;;;;;;5092871;28;20218;-76
2022/12/19 00:55:14;;;;;;;24.70;14.80;;;0.30;82.90;;;;;;5098616;28;20278;-77
2022/12/19 00:57:46;;;;;;;30.08;15.43;;;0.40;1.00;;;;;;5100356;27;20191;-77
2022/12/19 01:00:16;;;;;;;25.27;15.35;;;0.40;1.00;;;;;;5102342;28;20192;-77
2022/12/19 01:02:44;;;;;;;31.38;17.48;;;0.40;1.00;;;;;;5093879;27;20191;-76
2022/12/19 01:05:13;;;;;;;31.17;18.02;;;0.50;1.00;;;;;;5097447;27;20515;-74
2022/12/19 01:07:42;;;;;;;30.60;17.58;;;0.50;1.00;;;;;;5096691;27;20430;-76
2022/12/19 01:10:10;;;;;;;26.20;16.00;;;0.60;1.00;;;;;;5093642;28;20694;-76
2022/12/19 01:12:48;;;;;;;24.45;15.75;;;0.60;1.00;;;;;;5096510;28;20189;-76
2022/12/19 01:15:19;;;;;;;29.65;15.43;;;0.60;99.90;;;;;;5094427;28;20236;-77
2022/12/19 01:17:48;;;;;;;29.08;15.40;;;0.60;1.00;;;;;;5094493;28;20271;-76
2022/12/19 01:20:19;;;;;;;29.23;18.35;;;0.60;1.00;;;;;;5089213;28;20459;-77
2022/12/19 01:22:58;;;;;;;30.05;16.00;;;0.60;1.00;;;;;;5093435;28;20764;-77
2022/12/19 01:25:27;;;;;;;34.83;18.73;;;0.60;1.00;;;;;;5097763;27;20230;-76
2022/12/19 01:27:56;;;;;;;27.40;15.18;;;0.60;1.00;;;;;;5094367;28;20312;-77
2022/12/19 01:30:25;;;;;;;31.40;19.60;;;0.60;1.00;;;;;;5092956;28;20449;-78
2022/12/19 01:32:54;;;;;;;30.50;16.73;;;0.60;1.00;;;;;;5099271;28;21117;-78
2022/12/19 01:35:23;;;;;;;29.73;17.52;;;0.70;1.00;;;;;;5093982;27;20203;-77
2022/12/19 01:37:52;;;;;;;27.50;15.50;;;0.80;99.90;;;;;;5094090;28;20953;-76
2022/12/19 01:40:34;;;;;;;28.95;18.25;;;0.80;99.90;;;;;;5092940;28;20439;-77
2022/12/19 01:43:05;;;;;;;29.80;16.13;;;0.70;37.00;;;;;;5092733;28;20877;-77
2022/12/19 01:45:35;;;;;;;26.63;15.00;;;0.80;87.40;;;;;;5089367;28;20293;-77
2022/12/19 01:48:17;;;;;;;29.95;15.63;;;0.90;64.60;;;;;;5091197;28;20195;-78
2022/12/19 01:50:52;;;;;;;32.28;15.20;;;0.90;1.00;;;;;;5093775;28;20293;-78
2022/12/19 01:53:33;;;;;;;25.65;14.65;;;1.00;99.90;;;;;;5093997;28;20591;-78
2022/12/19 01:56:06;;;;;;;31.35;15.13;;;0.90;1.00;;;;;;5091294;28;20301;-78
2022/12/19 01:58:35;;;;;;;25.33;14.40;;;0.90;99.90;;;;;;5094461;28;20206;-78
2022/12/19 02:01:03;;;;;;;31.65;14.98;;;1.00;1.00;;;;;;5089602;28;20278;-76
2022/12/19 02:03:34;;;;;;;27.13;14.75;;;1.00;1.00;;;;;;5101156;27;20279;-77
2022/12/19 02:06:04;;;;;;;24.25;13.27;;;1.00;99.90;;;;;;5095505;27;20217;-77
2022/12/19 02:08:34;;;;;;;27.00;14.43;;;1.00;35.80;;;;;;5096681;27;20215;-77
2022/12/19 02:11:04;;;;;;;25.25;14.20;;;1.00;1.00;;;;;;5092848;28;20784;-77
2022/12/19 02:13:32;;;;;;;28.48;12.82;;;1.00;53.70;;;;;;5093494;27;20599;-77
2022/12/19 02:16:18;;;;;;;21.73;12.20;;;1.10;99.90;;;;;;5091845;28;20203;-75
2022/12/19 02:18:57;;;;;;;23.75;13.50;;;1.10;1.00;;;;;;5090814;28;20203;-76
2022/12/19 02:21:39;;;;;;;20.73;13.38;;;1.10;1.00;;;;;;5091105;28;20217;-75
2022/12/19 02:24:40;;;;;;;26.48;15.40;;;1.10;99.90;;;;;;5094167;28;20204;-75
2022/12/19 02:27:47;;;;;;;22.27;13.55;;;1.10;99.90;;;;;;5096182;28;20214;-75
2022/12/19 02:30:18;;;;;;;25.08;14.13;;;1.10;99.90;;;;;;5073961;28;20226;-75
2022/12/19 02:33:00;;;;;;;27.13;15.00;;;1.10;1.00;;;;;;5088454;27;20532;-74
2022/12/19 02:35:33;;;;;;;26.23;13.70;;;1.10;1.00;;;;;;5099592;27;20203;-76
2022/12/19 02:38:11;;;;;;;24.70;14.55;;;1.10;99.90;;;;;;5093383;27;20222;-74
2022/12/19 02:40:45;;;;;;;24.20;14.00;;;1.10;99.90;;;;;;5101892;27;20190;-75
2022/12/19 02:43:18;;;;;;;22.67;13.55;;;1.20;99.90;;;;;;5099285;28;20278;-76
2022/12/19 02:45:47;;;;;;;27.83;15.57;;;1.20;99.90;;;;;;5093813;27;20220;-74
2022/12/19 02:48:18;;;;;;;27.40;16.40;;;1.20;99.90;;;;;;5104257;27;20642;-74
2022/12/19 02:50:47;;;;;;;24.73;16.73;;;1.20;99.90;;;;;;5092685;28;20207;-75
2022/12/19 02:53:18;;;;;;;24.95;15.10;;;1.30;1.00;;;;;;5095930;28;20227;-75
2022/12/19 02:56:03;;;;;;;24.05;13.95;;;1.20;1.00;;;;;;5096169;28;20240;-75
2022/12/19 02:58:49;;;;;;;27.48;14.38;;;1.30;1.00;;;;;;5094737;28;20706;-75
2022/12/19 03:01:35;;;;;;;23.48;13.35;;;1.30;92.80;;;;;;5099225;28;20202;-73
2022/12/19 03:04:14;;;;;;;29.90;13.35;;;1.30;90.50;;;;;;5098663;28;20207;-75
2022/12/19 03:06:47;;;;;;;25.40;14.80;;;1.30;20.50;;;;;;5095532;28;20306;-78
2022/12/19 03:09:20;;;;;;;22.45;13.95;;;1.30;1.00;;;;;;5095473;28;20279;-78
2022/12/19 03:11:51;;;;;;;25.25;12.82;;;1.30;1.00;;;;;;5090423;28;20926;-76
2022/12/19 03:14:21;;;;;;;30.45;15.70;;;1.30;99.10;;;;;;5090238;28;21674;-77
2022/12/19 03:16:49;;;;;;;24.30;14.95;;;1.40;99.90;;;;;;5099142;28;20243;-77
2022/12/19 03:19:19;;;;;;;24.30;14.25;;;1.40;99.90;;;;;;5097797;28;20468;-77
2022/12/19 03:21:48;;;;;;;28.42;16.65;;;1.40;99.90;;;;;;5106394;27;20186;-75
2022/12/19 03:24:18;;;;;;;24.75;14.23;;;1.30;99.90;;;;;;5095227;27;20273;-76
2022/12/19 03:26:52;;;;;;;25.17;13.38;;;1.40;99.90;;;;;;5098381;27;20261;-76
2022/12/19 03:29:25;;;;;;;23.80;13.38;;;1.40;99.90;;;;;;5099897;27;20203;-76
2022/12/19 03:31:53;;;;;;;25.73;15.02;;;1.40;99.90;;;;;;5102035;28;20088;-77
2022/12/19 03:34:28;;;;;;;27.65;18.55;;;1.40;99.90;;;;;;5093076;27;20443;-76
2022/12/19 03:36:59;;;;;;;30.23;19.08;;;1.30;1.00;;;;;;5097479;28;20453;-76
2022/12/19 03:39:30;;;;;;;26.33;15.77;;;1.20;1.00;;;;;;5099268;27;20195;-75
2022/12/19 03:44:49;;;;;;;28.65;16.40;;;1.40;1.00;;;;;;5091889;28;20425;-76
2022/12/19 03:47:22;;;;;;;30.90;15.23;;;1.40;1.00;;;;;;5096353;27;20224;-77
2022/12/19 03:49:53;;;;;;;26.30;14.57;;;1.40;1.00;;;;;;5097987;27;20207;-77
2022/12/19 03:52:29;;;;;;;27.35;15.48;;;1.40;1.00;;;;;;5098821;27;20203;-77
2022/12/19 03:55:05;;;;;;;21.35;12.95;;;1.40;99.90;;;;;;5097868;28;20686;-77
2022/12/19 03:57:39;;;;;;;23.63;16.38;;;1.50;99.90;;;;;;5098640;27;20526;-76
2022/12/19 04:00:11;;;;;;;26.08;13.70;;;1.60;99.90;;;;;;5096276;27;20199;-76
2022/12/19 04:02:43;;;;;;;25.85;16.70;;;1.60;99.90;;;;;;5098000;28;20444;-75
2022/12/19 04:05:17;;;;;;;20.65;12.80;;;1.70;1.00;;;;;;5098587;27;20442;-76
2022/12/19 04:07:45;;;;;;;23.85;14.10;;;1.70;1.00;;;;;;5099088;27;20222;-75
2022/12/19 04:10:17;;;;;;;20.45;12.45;;;1.80;99.90;;;;;;5099280;28;20199;-77
2022/12/19 04:12:50;;;;;;;27.42;12.02;;;1.80;99.90;;;;;;5092927;27;20551;-77
2022/12/19 04:15:22;;;;;;;26.00;16.13;;;1.80;99.90;;;;;;5094298;27;20455;-77
2022/12/19 04:17:53;;;;;;;24.23;14.68;;;1.80;95.70;;;;;;5093683;28;20444;-77
2022/12/19 04:20:26;;;;;;;22.10;13.25;;;1.70;99.90;;;;;;5097116;27;20970;-78
2022/12/19 04:23:00;;;;;;;22.42;15.73;;;1.80;99.90;;;;;;5096549;28;20449;-76
2022/12/19 04:25:32;;;;;;;23.33;15.88;;;1.80;99.90;;;;;;5097888;27;20457;-77
2022/12/19 04:28:04;;;;;;;22.58;13.32;;;1.80;99.90;;;;;;5092596;28;20222;-75
2022/12/19 04:30:32;;;;;;;24.88;14.75;;;1.90;99.90;;;;;;5094674;28;20844;-76
2022/12/19 04:33:04;;;;;;;21.25;12.20;;;1.90;99.90;;;;;;5093609;28;20228;-77
2022/12/19 04:35:36;;;;;;;23.88;13.25;;;1.90;99.90;;;;;;5093301;27;20448;-77
2022/12/19 04:38:05;;;;;;;27.40;16.58;;;1.90;1.00;;;;;;5094803;27;20447;-76
2022/12/19 04:40:35;;;;;;;24.33;14.50;;;1.80;1.00;;;;;;5096656;27;20455;-76
2022/12/19 04:43:08;;;;;;;20.88;14.00;;;1.80;1.00;;;;;;5096286;28;20991;-77
2022/12/19 04:45:36;;;;;;;25.65;13.52;;;1.90;1.00;;;;;;5094466;27;20203;-76
2022/12/19 04:48:05;;;;;;;19.77;13.27;;;1.80;1.00;;;;;;5093719;28;20210;-76
2022/12/19 04:50:37;;;;;;;16.48;10.98;;;1.90;1.00;;;;;;5091488;28;20284;-77
2022/12/19 04:53:06;;;;;;;21.75;11.88;;;1.90;1.00;;;;;;5089228;27;20227;-77
2022/12/19 04:55:34;;;;;;;17.67;10.40;;;2.00;1.00;;;;;;5095880;27;20195;-75
2022/12/19 04:58:04;;;;;;;23.30;14.90;;;2.00;1.00;;;;;;5098733;28;20268;-76
2022/12/19 05:00:35;;;;;;;17.92;10.45;;;2.00;1.00;;;;;;5092724;28;22142;-75
2022/12/19 05:03:03;;;;;;;16.85;10.48;;;2.00;1.00;;;;;;5090090;28;20214;-75
2022/12/19 05:05:32;;;;;;;20.45;12.30;;;2.00;1.00;;;;;;5091434;27;20476;-75
2022/12/19 05:08:01;;;;;;;17.98;11.63;;;2.00;1.00;;;;;;5091677;27;20202;-76
2022/12/19 05:10:30;;;;;;;16.77;10.20;;;2.10;1.00;;;;;;5091208;28;20260;-76
2022/12/19 05:12:58;;;;;;;14.75;10.48;;;2.20;1.00;;;;;;5094316;27;20215;-75
2022/12/19 05:15:26;;;;;;;21.40;10.23;;;2.10;1.00;;;;;;5090067;28;20250;-77
2022/12/19 05:17:55;;;;;;;18.83;9.85;;;2.20;1.00;;;;;;5091314;28;20201;-77
2022/12/19 05:20:23;;;;;;;19.38;11.25;;;2.20;1.00;;;;;;5093610;28;20659;-76
2022/12/19 05:22:51;;;;;;;16.52;10.63;;;2.20;1.00;;;;;;5092035;28;20212;-76
2022/12/19 05:25:21;;;;;;;20.63;12.98;;;2.20;1.00;;;;;;5090769;28;20195;-76
2022/12/19 05:27:49;;;;;;;27.50;12.80;;;2.20;1.00;;;;;;5088538;28;20571;-77
2022/12/19 05:30:17;;;;;;;18.67;10.27;;;2.20;1.00;;;;;;5089232;28;20212;-76
2022/12/19 05:32:46;;;;;;;19.60;11.63;;;2.20;1.00;;;;;;5092461;28;20219;-76
2022/12/19 05:35:14;;;;;;;21.30;12.25;;;2.10;1.00;;;;;;5090816;28;20208;-77
2022/12/19 05:37:42;;;;;;;18.98;11.30;;;2.20;1.00;;;;;;5093612;28;20220;-78
2022/12/19 05:40:11;;;;;;;20.15;11.73;;;2.20;1.00;;;;;;5092773;28;20255;-77
2022/12/19 05:42:41;;;;;;;17.80;11.45;;;2.10;1.00;;;;;;5089039;28;20195;-76
2022/12/19 05:45:10;;;;;;;25.10;14.95;;;2.20;1.00;;;;;;5093739;27;20432;-75
2022/12/19 05:47:38;;;;;;;20.65;13.98;;;2.10;1.00;;;;;;5090933;28;20243;-77
2022/12/19 05:50:08;;;;;;;19.33;11.40;;;2.20;1.00;;;;;;5092596;28;20217;-77
2022/12/19 05:52:36;;;;;;;21.30;12.27;;;2.20;1.00;;;;;;5089141;28;20224;-77
2022/12/19 05:55:06;;;;;;;21.38;11.38;;;2.20;1.00;;;;;;5089736;28;20211;-77
2022/12/19 05:57:34;;;;;;;22.92;12.98;;;2.20;1.00;;;;;;5091753;28;20220;-77
2022/12/19 06:00:12;;;;;;;21.63;14.07;;;2.10;1.00;;;;;;5107328;27;20572;-76
2022/12/19 06:02:40;;;;;;;20.67;12.55;;;2.10;1.00;;;;;;5072158;28;20620;-76
2022/12/19 06:05:09;;;;;;;23.45;14.07;;;2.00;1.00;;;;;;5067539;28;20196;-76
2022/12/19 06:07:37;;;;;;;23.10;13.63;;;2.10;2.60;;;;;;5073341;28;20761;-76
2022/12/19 06:10:06;;;;;;;19.02;12.10;;;2.10;1.00;;;;;;5069749;28;20270;-77
2022/12/19 06:12:35;;;;;;;17.48;12.32;;;2.00;1.00;;;;;;5073076;28;20201;-76
2022/12/19 06:15:03;;;;;;;21.70;14.05;;;2.10;1.00;;;;;;5074837;28;20286;-76
2022/12/19 06:17:33;;;;;;;21.60;11.73;;;2.20;1.00;;;;;;5066964;28;20236;-78
2022/12/19 06:20:01;;;;;;;19.38;12.15;;;2.30;1.00;;;;;;5069248;28;20222;-77
2022/12/19 06:22:30;;;;;;;18.83;12.00;;;2.30;1.00;;;;;;5062184;28;20212;-77
2022/12/19 06:24:58;;;;;;;21.70;12.00;;;2.20;1.00;;;;;;5064784;28;20401;-77
2022/12/19 06:27:26;;;;;;;22.00;13.48;;;2.20;1.00;;;;;;5062242;28;20433;-77
2022/12/19 06:29:55;;;;;;;20.08;12.55;;;2.10;1.00;;;;;;5070169;28;20474;-76
2022/12/19 06:32:23;;;;;;;23.80;11.90;;;2.20;1.00;;;;;;5066330;28;20231;-77
2022/12/19 06:34:52;;;;;;;21.30;12.27;;;2.20;1.00;;;;;;5071697;28;20821;-77
2022/12/19 06:37:36;;;;;;;21.27;12.77;;;2.20;1.00;;;;;;5074698;28;20278;-77
2022/12/19 06:42:21;;;;;;;19.42;12.70;;;2.20;1.00;;;;;;5064065;28;20220;-78
2022/12/19 06:42:55;;;;;;;20.50;14.57;;;2.20;1.00;;;;;;5071179;28;20392;-77
2022/12/19 06:45:23;;;;;;;18.40;12.50;;;2.20;1.00;;;;;;5072417;28;20464;-77
2022/12/19 06:47:51;;;;;;;24.02;14.98;;;2.20;1.00;;;;;;5071679;28;20444;-78
2022/12/19 06:50:21;;;;;;;25.90;13.52;;;2.20;1.00;;;;;;5071950;28;20204;-79
2022/12/19 06:52:49;;;;;;;22.88;15.00;;;2.30;1.00;;;;;;5072942;28;20445;-78
2022/12/19 06:55:17;;;;;;;21.83;13.82;;;2.20;1.00;;;;;;5071123;28;20476;-77
2022/12/19 06:57:45;;;;;;;16.85;10.93;;;2.20;1.00;;;;;;5070332;28;20216;-78
2022/12/19 07:00:15;;;;;;;23.33;13.68;;;2.30;1.00;;;;;;5070261;28;20274;-77
2022/12/19 07:02:47;;;;;;;17.60;12.63;;;2.30;1.00;;;;;;5067991;28;20225;-76
2022/12/19 07:05:15;;;;;;;20.90;12.02;;;2.30;1.00;;;;;;5066243;28;20209;-76
2022/12/19 07:07:45;;;;;;;23.42;14.73;;;2.30;1.00;;;;;;5063370;28;20445;-78
2022/12/19 07:10:14;;;;;;;20.27;13.77;;;2.40;1.00;;;;;;5062334;28;20505;-79
2022/12/19 07:12:42;;;;;;;17.92;11.75;;;2.40;1.00;;;;;;5053100;28;20312;-78
2022/12/19 07:15:11;;;;;;;20.40;12.57;;;2.50;1.00;;;;;;5056499;28;20200;-76
2022/12/19 07:17:40;;;;;;;28.45;14.30;;;2.40;1.00;;;;;;5053647;28;20224;-78
2022/12/19 07:20:10;;;;;;;23.45;14.77;;;2.30;1.00;;;;;;5055060;28;20217;-78
2022/12/19 07:22:38;;;;;;;25.58;13.18;;;2.20;24.90;;;;;;5052612;28;20276;-76
2022/12/19 07:25:09;;;;;;;25.92;13.70;;;2.30;24.60;;;;;;5052936;28;20798;-78
2022/12/19 07:27:38;;;;;;;23.70;13.57;;;2.30;1.00;;;;;;5056345;28;20221;-77
2022/12/19 07:30:08;;;;;;;24.52;14.60;;;2.40;1.00;;;;;;5055323;28;20248;-78
2022/12/19 07:32:37;;;;;;;20.45;11.95;;;2.50;1.00;;;;;;5054942;28;20990;-78
2022/12/19 07:35:07;;;;;;;22.95;13.48;;;2.50;1.00;;;;;;5059228;28;20205;-77
2022/12/19 07:37:35;;;;;;;23.05;13.50;;;2.50;1.00;;;;;;5055047;28;20220;-78
2022/12/19 07:40:04;;;;;;;21.85;14.70;;;2.60;1.00;;;;;;5035929;28;20505;-79
2022/12/19 07:42:34;;;;;;;23.20;16.02;;;2.60;1.00;;;;;;5010763;28;20451;-77
2022/12/19 07:45:02;;;;;;;22.02;15.52;;;2.60;1.00;;;;;;5008067;28;20540;-80
2022/12/19 07:47:31;;;;;;;19.02;12.38;;;2.70;1.00;;;;;;4997750;28;20228;-78
2022/12/19 07:50:00;;;;;;;19.70;12.05;;;2.80;1.00;;;;;;5003859;28;20742;-78
2022/12/19 07:52:28;;;;;;;19.10;12.30;;;2.80;1.00;;;;;;5021202;28;20206;-78
2022/12/19 07:54:57;;;;;;;17.27;13.15;;;2.80;1.00;;;;;;5002621;28;20210;-78
2022/12/19 07:57:25;;;;;;;24.45;16.30;;;2.80;1.00;;;;;;5015687;28;20219;-78
2022/12/19 07:59:55;;;;;;;19.02;11.32;;;2.90;1.00;;;;;;5012532;28;20590;-80
2022/12/19 08:02:24;;;;;;;19.30;12.35;;;2.80;1.00;;;;;;5010838;28;21001;-77
2022/12/19 08:04:52;;;;;;;21.17;12.40;;;2.80;1.00;;;;;;5012477;28;20195;-77
2022/12/19 08:07:20;;;;;;;21.25;13.55;;;2.90;1.00;;;;;;5013375;28;20549;-78
2022/12/19 08:09:49;;;;;;;22.45;14.75;;;2.80;1.00;;;;;;5016172;28;20439;-77
2022/12/19 08:12:17;;;;;;;23.50;17.77;;;2.90;1.00;;;;;;5010974;28;20445;-78
2022/12/19 08:14:45;;;;;;;21.90;14.50;;;2.90;1.00;;;;;;5010744;28;20468;-78
2022/12/19 08:17:15;;;;;;;17.80;12.70;;;3.00;1.00;;;;;;5015359;28;20220;-78
2022/12/19 08:19:49;;;;;;;22.35;15.40;;;3.00;1.00;;;;;;5013868;28;20816;-78
2022/12/19 08:22:18;;;;;;;20.95;13.68;;;2.90;1.00;;;;;;5011231;28;20501;-78
2022/12/19 08:24:47;;;;;;;21.67;12.80;;;3.00;1.00;;;;;;5008799;28;20660;-78
2022/12/19 08:27:16;;;;;;;21.58;14.57;;;3.00;1.00;;;;;;5011627;28;20444;-76
2022/12/19 08:29:46;;;;;;;20.52;12.68;;;2.90;1.00;;;;;;5012763;28;20203;-79
2022/12/19 08:32:17;;;;;;;21.38;12.68;;;3.00;1.00;;;;;;5009894;28;20940;-79
2022/12/19 08:34:49;;;;;;;23.23;15.10;;;3.10;1.00;;;;;;5016791;28;20439;-78
2022/12/19 08:37:17;;;;;;;35.90;19.50;;;3.20;1.00;;;;;;5014397;28;20286;-77
2022/12/19 08:39:46;;;;;;;24.55;13.82;;;3.30;1.00;;;;;;5008282;28;20217;-77
2022/12/19 08:42:14;;;;;;;26.85;15.50;;;3.30;1.00;;;;;;5012760;28;20233;-78
2022/12/19 08:44:42;;;;;;;29.95;18.02;;;3.20;1.00;;;;;;5011129;28;20463;-78
2022/12/19 08:47:10;;;;;;;25.95;15.95;;;3.20;1.00;;;;;;5011966;28;20455;-77
2022/12/19 08:49:40;;;;;;;19.42;12.25;;;3.20;1.00;;;;;;5015152;28;20751;-78
2022/12/19 08:52:08;;;;;;;17.02;10.70;;;3.20;1.00;;;;;;5011831;28;20211;-78
2022/12/19 08:54:37;;;;;;;16.70;10.75;;;3.30;1.00;;;;;;5010193;28;20567;-79
2022/12/19 08:57:05;;;;;;;19.42;12.05;;;3.40;1.00;;;;;;5009995;28;20438;-77
2022/12/19 08:59:34;;;;;;;16.27;11.80;;;3.40;1.00;;;;;;5012290;28;20223;-76
2022/12/19 09:02:04;;;;;;;16.10;9.10;;;3.40;1.00;;;;;;5014567;28;20204;-78
2022/12/19 09:04:35;;;;;;;17.20;12.40;;;3.40;1.00;;;;;;5011345;28;20454;-78
2022/12/19 09:07:25;;;;;;;37.53;19.55;;;3.30;1.00;;;;;;5013938;28;20223;-76
2022/12/19 09:09:54;;;;;;;53.47;29.98;;;3.40;1.00;;;;;;5014981;28;20849;-79
2022/12/19 09:12:23;;;;;;;26.67;18.08;;;3.40;1.00;;;;;;5008823;28;20453;-78
2022/12/19 09:14:52;;;;;;;14.43;9.95;;;3.60;1.00;;;;;;5009199;28;20641;-78
2022/12/19 09:17:22;;;;;;;22.42;12.77;;;3.80;1.00;;;;;;5011081;28;20275;-78
2022/12/19 09:19:52;;;;;;;16.10;11.73;;;3.90;1.00;;;;;;5010201;28;20226;-78
2022/12/19 09:22:21;;;;;;;12.77;9.97;;;4.00;1.00;;;;;;5009771;28;20542;-77
2022/12/19 09:24:59;;;;;;;16.95;9.82;;;4.00;1.00;;;;;;5010986;28;20439;-77
2022/12/19 09:27:28;;;;;;;12.18;9.00;;;4.10;1.00;;;;;;5015975;28;21261;-76
2022/12/19 09:29:57;;;;;;;14.45;9.98;;;4.10;1.00;;;;;;5011382;28;20445;-78
2022/12/19 09:32:27;;;;;;;13.85;11.23;;;4.30;99.90;;;;;;5011024;28;20485;-78
2022/12/19 09:34:55;;;;;;;13.52;8.60;;;4.40;99.90;;;;;;5010544;28;20591;-77
2022/12/19 09:37:24;;;;;;;13.40;10.73;;;4.50;99.90;;;;;;5014062;28;20955;-77
2022/12/19 09:39:53;;;;;;;13.15;9.45;;;4.50;99.90;;;;;;5012478;28;20279;-78
2022/12/19 09:42:48;;;;;;;11.23;8.63;;;4.50;99.90;;;;;;5018237;28;20209;-77
2022/12/19 09:45:44;;;;;;;12.57;8.48;;;4.50;99.90;;;;;;5011694;28;20198;-79
2022/12/19 09:48:15;;;;;;;12.23;10.00;;;4.60;99.90;;;;;;5011417;28;20455;-77
2022/12/19 09:50:58;;;;;;;13.15;9.85;;;4.50;99.90;;;;;;5018831;28;20251;-77
2022/12/19 09:53:51;;;;;;;9.45;7.65;;;4.50;99.90;;;;;;5017170;28;20764;-77
2022/12/19 09:56:25;;;;;;;11.98;8.85;;;4.60;99.90;;;;;;5018099;28;20536;-79
2022/12/19 09:59:01;;;;;;;15.25;9.30;;;4.50;99.90;;;;;;5016368;28;20210;-77
2022/12/19 10:01:35;;;;;;;8.73;7.25;;;4.50;99.90;;;;;;5017776;28;21043;-77
2022/12/19 10:04:10;;;;;;;13.60;9.10;;;4.50;1.00;;;;;;5015447;28;20582;-77
2022/12/19 10:06:38;;;;;;;11.73;8.82;;;4.40;1.00;;;;;;5013391;28;20247;-77
2022/12/19 10:09:33;;;;;;;14.80;7.32;;;4.40;87.10;;;;;;5016206;28;20212;-78
2022/12/19 10:12:41;;;;;;;12.63;8.55;;;4.40;99.90;;;;;;5015525;28;20212;-77
2022/12/19 10:15:28;;;;;;;14.80;9.05;;;4.40;99.90;;;;;;5013444;28;20454;-79
2022/12/19 10:18:17;;;;;;;13.10;8.48;;;4.40;99.90;;;;;;5016718;28;20212;-78
2022/12/19 10:20:50;;;;;;;13.82;10.07;;;4.30;99.90;;;;;;5014487;28;20440;-79
2022/12/19 10:23:52;;;;;;;9.65;7.22;;;4.40;99.90;;;;;;5013756;28;20213;-79
2022/12/19 10:26:29;;;;;;;12.95;9.18;;;4.50;99.90;;;;;;5015277;28;20721;-77
2022/12/19 10:29:17;;;;;;;12.13;8.00;;;4.60;99.90;;;;;;5015708;28;20212;-78
2022/12/19 10:31:55;;;;;;;14.25;8.65;;;4.70;50.90;;;;;;5015210;28;20209;-78
2022/12/19 10:34:28;;;;;;;14.13;10.40;;;4.90;1.00;;;;;;5012725;28;20443;-78
2022/12/19 10:37:01;;;;;;;13.33;9.70;;;5.00;99.90;;;;;;5016137;28;20538;-79
2022/12/19 10:39:59;;;;;;;25.42;18.40;;;5.30;61.10;;;;;;5014442;28;20452;-77
2022/12/19 10:42:36;;;;;;;46.40;24.92;;;5.50;69.20;;;;;;5013440;28;20214;-78
2022/12/19 10:45:15;;;;;;;14.40;10.45;;;5.60;1.00;;;;;;5014283;28;20509;-78
2022/12/19 10:47:47;;;;;;;10.05;7.95;;;5.40;1.00;;;;;;5017564;28;20222;-77
2022/12/19 10:50:21;;;;;;;19.50;14.50;;;5.30;1.00;;;;;;5015541;28;20683;-77
2022/12/19 10:52:53;;;;;;;13.45;8.90;;;5.50;99.90;;;;;;5021947;28;20219;-78
2022/12/19 10:55:30;;;;;;;11.45;7.85;;;5.40;1.00;;;;;;5021830;28;20197;-78
2022/12/19 10:58:00;;;;;;;12.23;9.30;;;5.40;1.00;;;;;;5014839;28;20842;-77
2022/12/19 11:00:29;;;;;;;13.73;9.68;;;5.40;99.90;;;;;;5017920;28;20205;-78
2022/12/19 11:03:13;;;;;;;10.52;7.72;;;5.50;99.90;;;;;;5019073;28;20222;-78
2022/12/19 11:05:49;;;;;;;22.35;16.05;;;5.50;25.70;;;;;;5021791;28;20229;-77
2022/12/19 11:08:27;;;;;;;11.53;9.23;;;5.40;1.00;;;;;;5020961;28;20471;-78
2022/12/19 11:10:57;;;;;;;13.10;8.15;;;5.40;1.00;;;;;;5018426;28;20484;-77
2022/12/19 11:13:48;;;;;;;11.73;8.35;;;5.50;35.60;;;;;;5016962;28;20225;-78
2022/12/19 11:16:38;;;;;;;11.73;9.35;;;5.60;99.90;;;;;;5019117;28;20457;-77
2022/12/19 11:19:33;;;;;;;12.80;9.80;;;5.70;99.90;;;;;;5018256;28;20465;-77
2022/12/19 11:22:23;;;;;;;12.00;9.15;;;6.10;99.90;;;;;;5012526;28;20447;-78
2022/12/19 11:25:18;;;;;;;16.77;12.25;;;6.40;99.90;;;;;;5010486;28;20446;-75
2022/12/19 11:28:15;;;;;;;24.87;14.57;;;6.40;1.00;;;;;;5019157;28;20293;-78
2022/12/19 11:31:09;;;;;;;11.27;8.37;;;6.50;1.00;;;;;;5015068;28;20451;-77
2022/12/19 11:34:04;;;;;;;8.77;7.18;;;6.40;99.90;;;;;;5013948;28;20454;-77
2022/12/19 11:36:39;;;;;;;10.52;7.18;;;6.20;99.90;;;;;;5021752;28;20812;-77
2022/12/19 11:39:18;;;;;;;10.67;8.23;;;6.20;1.00;;;;;;5023559;28;25141;-77
2022/12/19 11:41:51;;;;;;;10.27;6.60;;;6.20;56.60;;;;;;5019042;28;20465;-78
2022/12/19 11:44:29;;;;;;;8.90;7.07;;;6.10;99.90;;;;;;5013388;28;20592;-77
2022/12/19 11:47:04;;;;;;;11.30;8.23;;;6.10;99.90;;;;;;5015789;28;20782;-78
2022/12/19 11:49:38;;;;;;;9.25;6.47;;;6.10;1.00;;;;;;5015872;28;20285;-78
2022/12/19 11:52:17;;;;;;;10.90;8.50;;;6.00;99.90;;;;;;5016328;28;20442;-78
2022/12/19 11:55:14;;;;;;;11.68;7.95;;;6.10;99.90;;;;;;5020349;28;20518;-79
2022/12/19 11:57:43;;;;;;;11.93;9.32;;;6.10;1.00;;;;;;5015265;28;20460;-79
2022/12/19 12:00:13;;;;;;;13.38;8.20;;;6.10;1.00;;;;;;5015476;28;20194;-78
2022/12/19 12:03:10;;;;;;;12.80;7.63;;;6.20;99.90;;;;;;5018281;28;20221;-79
2022/12/19 12:05:45;;;;;;;15.75;8.68;;;6.20;1.00;;;;;;5016078;28;21004;-77
2022/12/19 12:08:44;;;;;;;12.20;8.20;;;6.10;99.90;;;;;;5015472;28;20198;-78
2022/12/19 12:11:42;;;;;;;11.53;10.33;;;6.00;1.00;;;;;;5012898;28;20852;-78
2022/12/19 12:14:40;;;;;;;14.13;8.63;;;6.10;99.90;;;;;;5016167;28;20471;-77
2022/12/19 12:17:37;;;;;;;9.33;8.10;;;6.20;99.90;;;;;;5012891;28;20477;-79
2022/12/19 12:20:36;;;;;;;12.77;9.25;;;6.30;1.00;;;;;;5016165;28;20439;-79
2022/12/19 12:23:31;;;;;;;9.80;7.10;;;6.20;81.10;;;;;;5011960;28;20233;-81
2022/12/19 12:26:26;;;;;;;10.63;7.60;;;6.30;1.00;;;;;;5013213;28;20488;-78
2022/12/19 12:29:21;;;;;;;12.25;8.20;;;6.20;99.90;;;;;;5012652;28;20451;-78
2022/12/19 12:32:29;;;;;;;9.60;7.93;;;6.20;99.90;;;;;;5010610;28;20389;-76
2022/12/19 12:35:30;;;;;;;10.97;7.00;;;6.20;1.00;;;;;;5016068;28;20453;-75
2022/12/19 12:38:41;;;;;;;9.63;6.75;;;6.30;1.00;;;;;;5008574;28;20606;-76
2022/12/19 12:42:02;;;;;;;12.30;7.43;;;6.30;99.90;;;;;;5010136;28;20345;-78
2022/12/19 12:44:13;;;;;;;11.48;8.70;;;6.20;1.00;;;;;;5010979;28;20533;-79
2022/12/19 12:46:48;;;;;;;10.53;8.17;;;6.20;1.00;;;;;;5007926;28;20249;-78
2022/12/19 12:49:30;;;;;;;8.00;7.00;;;6.30;1.00;;;;;;5006536;28;20457;-76
2022/12/19 12:52:01;;;;;;;11.30;7.97;;;6.40;99.90;;;;;;5009219;28;20457;-76
2022/12/19 12:54:36;;;;;;;11.10;7.90;;;6.40;1.00;;;;;;5005903;28;20460;-77
2022/12/19 12:57:06;;;;;;;9.70;7.50;;;6.40;99.90;;;;;;5010700;28;20510;-77
2022/12/19 12:59:34;;;;;;;11.98;9.50;;;6.50;99.90;;;;;;4999155;28;20566;-78
2022/12/19 13:02:15;;;;;;;9.40;8.48;;;6.50;1.00;;;;;;5005039;28;20583;-76
2022/12/19 13:04:56;;;;;;;8.80;7.10;;;6.50;1.00;;;;;;5006450;28;20226;-77
2022/12/19 13:07:32;;;;;;;11.07;8.15;;;6.60;10.70;;;;;;5010880;28;20534;-76
2022/12/19 13:10:34;;;;;;;11.32;9.35;;;6.70;99.90;;;;;;5008971;28;20544;-78
2022/12/19 13:13:06;;;;;;;9.75;8.75;;;6.70;1.00;;;;;;4938891;28;21014;-76
2022/12/19 13:15:43;;;;;;;11.73;9.80;;;6.70;1.00;;;;;;4997364;28;20498;-76
2022/12/19 13:18:37;;;;;;;14.03;9.50;;;6.60;39.60;;;;;;5009473;28;20457;-75
2022/12/19 13:21:08;;;;;;;11.70;9.23;;;6.70;99.90;;;;;;5005783;28;20489;-80
2022/12/19 13:24:12;;;;;;;11.30;7.70;;;6.60;99.90;;;;;;5007832;28;20227;-78